createdAt,value
2023-03-29T00:00:16.784Z,99544.87
2023-03-29T00:04:02.664Z,99548.02
2023-03-29T00:07:27.160Z,99546.27
2023-03-29T00:10:52.038Z,99543.80
2023-03-29T00:14:15.985Z,99544.34
2023-03-29T00:17:40.180Z,99545.14
2023-03-29T00:21:04.477Z,99544.52
2023-03-29T00:24:28.728Z,99547.85
2023-03-29T00:27:53.355Z,99546.29
2023-03-29T00:31:19.296Z,99543.01
2023-03-29T00:34:46.201Z,99545.95
2023-03-29T00:38:10.216Z,99544.13
2023-03-29T00:41:34.268Z,99542.30
2023-03-29T00:45:07.568Z,99537.42
2023-03-29T00:48:32.976Z,99540.80
2023-03-29T00:51:57.292Z,99537.90
2023-03-29T00:55:24.903Z,99540.35
2023-03-29T00:59:00.922Z,99542.27
2023-03-29T01:02:28.717Z,99539.82
2023-03-29T01:06:00.456Z,99543.02
2023-03-29T01:09:29.938Z,99548.50
2023-03-29T01:13:04.985Z,99551.70
2023-03-29T01:16:33.080Z,99550.22
2023-03-29T01:20:10.737Z,99552.70
2023-03-29T01:23:51.162Z,99552.16
2023-03-29T01:27:54.543Z,99548.42
2023-03-29T01:31:25.909Z,99549.25
2023-03-29T01:35:04.829Z,99550.66
2023-03-29T01:38:32.889Z,99555.05
2023-03-29T01:42:15.178Z,99555.35
2023-03-29T01:46:06.146Z,99552.55
2023-03-29T01:49:40.549Z,99556.13
2023-03-29T01:53:11.337Z,99556.91
2023-03-29T01:56:41.322Z,99559.02
2023-03-29T02:00:10.583Z,99554.46
2023-03-29T02:03:42.516Z,99554.70
2023-03-29T02:07:09.752Z,99554.77
2023-03-29T02:10:35.178Z,99553.62
2023-03-29T02:14:00.841Z,99553.61
2023-03-29T02:17:27.845Z,99554.02
2023-03-29T02:20:54.063Z,99553.16
2023-03-29T02:24:21.054Z,99547.55
2023-03-29T02:27:46.236Z,99550.46
2023-03-29T02:31:26.235Z,99551.76
2023-03-29T02:35:13.150Z,99554.31
2023-03-29T02:38:39.166Z,99554.74
2023-03-29T02:42:06.242Z,99554.95
2023-03-29T02:45:31.997Z,99550.34
2023-03-29T02:48:58.095Z,99559.13
2023-03-29T02:52:29.422Z,99557.89
2023-03-29T02:55:54.011Z,99560.83
2023-03-29T02:59:20.801Z,99563.84
2023-03-29T03:02:44.678Z,99565.27
2023-03-29T03:06:09.163Z,99567.67
2023-03-29T03:09:33.017Z,99567.15
2023-03-29T03:12:57.000Z,99566.07
2023-03-29T03:16:22.098Z,99567.95
2023-03-29T03:19:45.955Z,99569.23
2023-03-29T03:23:10.778Z,99570.92
2023-03-29T03:26:36.127Z,99572.43
2023-03-29T03:30:01.181Z,99578.55
2023-03-29T03:33:42.992Z,99577.13
2023-03-29T03:37:25.599Z,99572.79
2023-03-29T03:40:56.952Z,99577.70
2023-03-29T03:44:21.622Z,99581.08
2023-03-29T03:47:54.497Z,99581.80
2023-03-29T03:51:30.075Z,99585.17
2023-03-29T03:54:54.352Z,99589.16
2023-03-29T03:58:37.930Z,99594.27
2023-03-29T04:02:03.182Z,99593.74
2023-03-29T04:05:27.417Z,99600.77
2023-03-29T04:08:52.318Z,99605.84
2023-03-29T04:12:29.689Z,99602.88
2023-03-29T04:15:54.511Z,99612.86
2023-03-29T04:19:18.501Z,99611.02
2023-03-29T04:22:43.692Z,99613.80
2023-03-29T04:26:07.956Z,99614.92
2023-03-29T04:29:44.965Z,99618.81
2023-03-29T04:33:17.651Z,99617.09
2023-03-29T04:36:45.454Z,99619.05
2023-03-29T04:40:15.176Z,99618.67
2023-03-29T04:44:00.661Z,99622.11
2023-03-29T04:47:29.708Z,99623.27
2023-03-29T04:50:59.877Z,99628.00
2023-03-29T04:54:24.101Z,99628.17
2023-03-29T04:58:06.939Z,99627.63
2023-03-29T05:01:36.148Z,99634.09
2023-03-29T05:05:00.189Z,99639.49
2023-03-29T05:08:24.486Z,99641.13
2023-03-29T05:12:05.452Z,99636.29
2023-03-29T05:15:41.149Z,99640.98
2023-03-29T05:19:05.688Z,99642.48
2023-03-29T05:22:31.940Z,99648.02
2023-03-29T05:25:55.990Z,99650.85
2023-03-29T05:29:20.240Z,99647.33
2023-03-29T05:32:49.456Z,99651.64
2023-03-29T05:36:18.954Z,99654.98
2023-03-29T05:39:49.124Z,99656.86
2023-03-29T05:43:14.436Z,99660.70
2023-03-29T05:46:38.560Z,99664.58
2023-03-29T05:50:04.891Z,99665.05
2023-03-29T05:53:29.377Z,99664.44
2023-03-29T05:56:53.497Z,99663.44
2023-03-29T06:00:23.869Z,99658.45
2023-03-29T06:03:53.691Z,99661.43
2023-03-29T06:07:19.853Z,99656.11
2023-03-29T06:11:02.466Z,99656.79
2023-03-29T06:14:51.006Z,99655.80
2023-03-29T06:18:19.059Z,99654.11
2023-03-29T06:21:43.463Z,99655.95
2023-03-29T06:25:12.500Z,99656.29
2023-03-29T06:28:37.599Z,99658.11
2023-03-29T06:32:04.676Z,99657.10
2023-03-29T06:35:49.523Z,99663.69
2023-03-29T06:39:16.752Z,99667.04
2023-03-29T06:43:16.307Z,99666.33
2023-03-29T06:46:50.018Z,99672.53
2023-03-29T06:50:18.136Z,99678.18
2023-03-29T06:53:50.087Z,99678.14
2023-03-29T06:57:14.220Z,99682.05
2023-03-29T07:00:39.520Z,99688.09
2023-03-29T07:04:19.199Z,99688.31
2023-03-29T07:08:11.767Z,99691.15
2023-03-29T07:11:46.994Z,99692.19
2023-03-29T07:15:16.894Z,99694.86
2023-03-29T07:19:09.685Z,99696.08
2023-03-29T07:22:48.302Z,99697.84
2023-03-29T07:26:12.444Z,99694.64
2023-03-29T07:29:37.881Z,99697.55
2023-03-29T07:33:02.172Z,99700.04
2023-03-29T07:36:43.896Z,99701.84
2023-03-29T07:40:12.538Z,99704.45
2023-03-29T07:43:45.263Z,99706.06
2023-03-29T07:47:09.671Z,99706.89
2023-03-29T07:50:34.462Z,99706.55
2023-03-29T07:54:00.049Z,99711.61
2023-03-29T07:57:47.608Z,99709.30
2023-03-29T08:01:18.909Z,99709.98
2023-03-29T08:05:01.742Z,99709.94
2023-03-29T08:08:49.430Z,99710.68
2023-03-29T08:12:14.846Z,99711.70
2023-03-29T08:15:43.111Z,99710.95
2023-03-29T08:19:14.751Z,99711.61
2023-03-29T08:22:48.899Z,99705.25
2023-03-29T08:26:31.530Z,99701.96
2023-03-29T08:29:55.920Z,99704.54
2023-03-29T08:33:19.952Z,99703.39
2023-03-29T08:36:48.597Z,99699.97
2023-03-29T08:40:27.991Z,99692.30
2023-03-29T08:44:36.472Z,99690.38
2023-03-29T08:48:17.557Z,99693.64
2023-03-29T08:51:48.289Z,99688.66
2023-03-29T08:55:28.364Z,99682.87
2023-03-29T08:59:26.961Z,99682.91
2023-03-29T09:02:53.962Z,99681.48
2023-03-29T09:06:21.666Z,99681.45
2023-03-29T09:09:46.977Z,99679.97
2023-03-29T09:13:34.204Z,99676.21
2023-03-29T09:17:23.475Z,99675.67
2023-03-29T09:21:01.419Z,99675.05
2023-03-29T09:24:37.537Z,99671.92
2023-03-29T09:28:20.100Z,99674.68
2023-03-29T09:31:49.495Z,99666.52
2023-03-29T09:35:18.830Z,99671.60
2023-03-29T09:38:47.201Z,99665.42
2023-03-29T09:42:15.653Z,99666.49
2023-03-29T09:45:42.149Z,99665.73
2023-03-29T09:49:11.584Z,99669.40
2023-03-29T09:52:35.913Z,99664.57
2023-03-29T09:56:08.515Z,99658.27
2023-03-29T09:59:41.615Z,99652.12
2023-03-29T10:03:07.974Z,99656.30
2023-03-29T10:06:49.271Z,99660.34
2023-03-29T10:10:24.818Z,99653.91
2023-03-29T10:13:51.623Z,99655.15
2023-03-29T10:17:21.938Z,99655.27
2023-03-29T10:20:45.804Z,99651.92
2023-03-29T10:24:10.650Z,99651.53
2023-03-29T10:27:34.752Z,99654.09
2023-03-29T10:31:02.072Z,99648.63
2023-03-29T10:34:28.168Z,99651.80
2023-03-29T10:37:54.527Z,99646.64
2023-03-29T10:41:19.207Z,99651.09
2023-03-29T10:44:43.512Z,99639.02
2023-03-29T10:48:13.132Z,99639.84
2023-03-29T10:51:37.727Z,99640.74
2023-03-29T10:55:02.029Z,99639.23
2023-03-29T10:59:10.732Z,99638.08
2023-03-29T11:02:42.437Z,99636.32
2023-03-29T11:06:12.328Z,99635.16
2023-03-29T11:09:46.441Z,99630.73
2023-03-29T11:13:31.719Z,99627.46
2023-03-29T11:17:05.100Z,99628.86
2023-03-29T11:20:59.122Z,99623.68
2023-03-29T11:24:48.922Z,99618.23
2023-03-29T11:28:28.719Z,99619.52
2023-03-29T11:32:18.277Z,99617.79
2023-03-29T11:35:56.494Z,99615.45
2023-03-29T11:39:50.943Z,99613.30
2023-03-29T11:43:29.056Z,99607.08
2023-03-29T11:46:58.774Z,99607.13
2023-03-29T11:50:44.254Z,99603.45
2023-03-29T11:54:22.960Z,99603.55
2023-03-29T11:58:13.995Z,99605.13
2023-03-29T12:01:43.447Z,99609.84
2023-03-29T12:05:26.021Z,99598.73
2023-03-29T12:09:34.196Z,99605.99
2023-03-29T12:13:05.857Z,99600.64
2023-03-29T12:16:40.851Z,99601.73
2023-03-29T12:20:07.175Z,99599.53
2023-03-29T12:23:34.515Z,99602.05
2023-03-29T12:27:24.113Z,99595.15
2023-03-29T12:31:02.374Z,99598.41
2023-03-29T12:34:39.025Z,99592.16
2023-03-29T12:38:33.937Z,99588.41
2023-03-29T12:42:20.448Z,99593.33
2023-03-29T12:46:22.640Z,99595.05
2023-03-29T12:49:47.403Z,99594.40
2023-03-29T12:53:33.509Z,99587.67
2023-03-29T12:57:01.566Z,99582.41
2023-03-29T13:00:33.723Z,99584.48
2023-03-29T13:04:00.833Z,99584.70
2023-03-29T13:07:26.493Z,99576.25
2023-03-29T13:10:56.372Z,99580.13
2023-03-29T13:14:22.393Z,99582.89
2023-03-29T13:17:53.035Z,99578.27
2023-03-29T13:21:29.500Z,99577.09
2023-03-29T13:25:18.078Z,99576.36
2023-03-29T13:29:02.526Z,99569.27
2023-03-29T13:33:02.063Z,99571.36
2023-03-29T13:36:43.632Z,99571.73
2023-03-29T13:40:33.091Z,99567.39
2023-03-29T13:43:58.742Z,99572.61
2023-03-29T13:47:43.104Z,99576.06
2023-03-29T13:51:14.962Z,99575.79
2023-03-29T13:54:58.285Z,99570.14
2023-03-29T13:58:42.838Z,99569.89
2023-03-29T14:02:07.872Z,99566.10
2023-03-29T14:05:45.335Z,99568.46
2023-03-29T14:09:10.799Z,99567.95
2023-03-29T14:12:41.939Z,99561.61
2023-03-29T14:16:11.239Z,99566.08
2023-03-29T14:19:39.256Z,99566.13
2023-03-29T14:23:10.931Z,99566.23
2023-03-29T14:26:36.877Z,99563.23
2023-03-29T14:30:01.197Z,99558.15
2023-03-29T14:33:34.797Z,99560.73
2023-03-29T14:36:58.890Z,99558.23
2023-03-29T14:40:23.713Z,99561.61
2023-03-29T14:43:48.976Z,99561.20
2023-03-29T14:47:21.177Z,99559.64
2023-03-29T14:50:46.892Z,99551.26
2023-03-29T14:54:20.769Z,99553.10
2023-03-29T14:57:45.066Z,99552.64
2023-03-29T15:01:18.496Z,99550.78
2023-03-29T15:04:42.663Z,99548.27
2023-03-29T15:08:10.509Z,99548.95
2023-03-29T15:11:35.236Z,99552.80
2023-03-29T15:15:00.635Z,99545.60
2023-03-29T15:18:28.371Z,99546.41
2023-03-29T15:21:52.977Z,99547.63
2023-03-29T15:25:18.853Z,99547.33
2023-03-29T15:28:49.002Z,99543.52
2023-03-29T15:32:33.666Z,99546.70
2023-03-29T15:35:58.170Z,99541.33
2023-03-29T15:39:22.514Z,99543.96
2023-03-29T15:42:46.691Z,99540.64
2023-03-29T15:46:14.066Z,99536.22
2023-03-29T15:49:37.892Z,99536.36
2023-03-29T15:53:14.267Z,99539.74
2023-03-29T15:56:49.759Z,99539.16
2023-03-29T16:00:15.001Z,99543.77
2023-03-29T16:03:40.217Z,99544.31
2023-03-29T16:07:12.311Z,99543.91
2023-03-29T16:10:36.682Z,99540.91
2023-03-29T16:14:01.031Z,99545.14
2023-03-29T16:17:27.660Z,99544.09
2023-03-29T16:20:51.906Z,99543.89
2023-03-29T16:24:21.928Z,99546.79
2023-03-29T16:27:47.229Z,99541.52
2023-03-29T16:31:13.148Z,99543.27
2023-03-29T16:34:38.164Z,99542.70
2023-03-29T16:38:02.549Z,99544.85
2023-03-29T16:41:27.365Z,99542.77
2023-03-29T16:44:51.617Z,99539.13
2023-03-29T16:48:19.744Z,99536.29
2023-03-29T16:51:43.638Z,99533.80
2023-03-29T16:55:09.209Z,99534.05
2023-03-29T16:58:33.029Z,99532.81
2023-03-29T17:01:57.364Z,99536.30
2023-03-29T17:05:22.305Z,99535.08
2023-03-29T17:08:46.247Z,99537.57
2023-03-29T17:12:10.543Z,99533.35
2023-03-29T17:15:37.356Z,99540.70
2023-03-29T17:19:03.103Z,99537.55
2023-03-29T17:22:29.279Z,99539.98
2023-03-29T17:25:56.021Z,99539.77
2023-03-29T17:29:20.229Z,99541.09
2023-03-29T17:32:45.742Z,99545.48
2023-03-29T17:36:10.134Z,99546.44
2023-03-29T17:39:37.560Z,99541.91
2023-03-29T17:43:02.024Z,99546.86
2023-03-29T17:46:26.423Z,99546.64
2023-03-29T17:49:51.249Z,99549.40
2023-03-29T17:53:17.876Z,99547.92
2023-03-29T17:56:41.795Z,99556.38
2023-03-29T18:00:09.228Z,99553.34
2023-03-29T18:03:34.243Z,99554.89
2023-03-29T18:06:58.343Z,99555.61
2023-03-29T18:10:22.805Z,99557.11
2023-03-29T18:13:46.588Z,99555.80
2023-03-29T18:17:13.171Z,99560.79
2023-03-29T18:20:37.494Z,99563.48
2023-03-29T18:24:01.403Z,99561.33
2023-03-29T18:27:25.501Z,99563.34
2023-03-29T18:30:52.413Z,99563.80
2023-03-29T18:34:16.320Z,99568.27
2023-03-29T18:37:40.450Z,99570.32
2023-03-29T18:41:08.670Z,99570.35
2023-03-29T18:44:36.483Z,99571.10
2023-03-29T18:48:00.809Z,99571.11
2023-03-29T18:51:25.987Z,99571.28
2023-03-29T18:54:50.097Z,99571.67
2023-03-29T18:58:18.307Z,99566.96
2023-03-29T19:01:44.013Z,99568.20
2023-03-29T19:05:08.976Z,99566.41
2023-03-29T19:08:34.726Z,99563.30
2023-03-29T19:12:06.219Z,99563.95
2023-03-29T19:15:30.067Z,99563.23
2023-03-29T19:18:54.844Z,99562.11
2023-03-29T19:22:18.641Z,99560.38
2023-03-29T19:25:43.501Z,99558.58
2023-03-29T19:29:07.430Z,99556.95
2023-03-29T19:32:33.192Z,99554.52
2023-03-29T19:35:57.943Z,99553.98
2023-03-29T19:39:22.415Z,99551.12
2023-03-29T19:42:47.671Z,99559.79
2023-03-29T19:46:15.604Z,99555.11
2023-03-29T19:49:39.806Z,99550.52
2023-03-29T19:53:03.736Z,99552.39
2023-03-29T19:56:28.083Z,99554.61
2023-03-29T19:59:54.184Z,99551.27
2023-03-29T20:03:21.834Z,99549.97
2023-03-29T20:06:46.245Z,99548.66
2023-03-29T20:10:11.179Z,99550.80
2023-03-29T20:13:38.794Z,99549.63
2023-03-29T20:17:04.584Z,99549.49
2023-03-29T20:20:30.018Z,99541.71
2023-03-29T20:23:53.833Z,99544.24
2023-03-29T20:27:18.126Z,99543.52
2023-03-29T20:30:42.722Z,99545.71
2023-03-29T20:34:06.542Z,99547.46
2023-03-29T20:37:30.406Z,99549.66
2023-03-29T20:40:55.467Z,99549.98
2023-03-29T20:44:19.499Z,99548.08
2023-03-29T20:47:50.534Z,99548.63
2023-03-29T20:51:14.717Z,99546.90
2023-03-29T20:54:39.000Z,99549.27
2023-03-29T20:58:03.558Z,99551.71
2023-03-29T21:01:31.291Z,99552.05
2023-03-29T21:05:00.360Z,99552.13
2023-03-29T21:08:24.159Z,99549.73
2023-03-29T21:11:49.175Z,99539.73
2023-03-29T21:15:14.604Z,99540.18
2023-03-29T21:18:40.884Z,99537.29
2023-03-29T21:22:05.296Z,99533.86
2023-03-29T21:25:29.223Z,99530.58
2023-03-29T21:28:53.360Z,99530.88
2023-03-29T21:32:17.443Z,99525.96
2023-03-29T21:35:41.432Z,99525.89
2023-03-29T21:39:05.899Z,99529.38
2023-03-29T21:42:29.897Z,99525.27
2023-03-29T21:45:53.898Z,99520.41
2023-03-29T21:49:17.754Z,99513.76
2023-03-29T21:52:43.789Z,99508.38
2023-03-29T21:56:08.877Z,99505.11
2023-03-29T21:59:32.902Z,99504.71
2023-03-29T22:02:57.187Z,99506.59
2023-03-29T22:06:21.459Z,99509.61
2023-03-29T22:09:46.605Z,99507.56
2023-03-29T22:13:10.409Z,99499.65
2023-03-29T22:16:37.206Z,99497.81
2023-03-29T22:20:02.711Z,99498.69
2023-03-29T22:23:26.627Z,99501.80
2023-03-29T22:26:51.492Z,99500.54
2023-03-29T22:30:16.601Z,99501.48
2023-03-29T22:33:42.083Z,99501.71
2023-03-29T22:37:06.579Z,99505.81
2023-03-29T22:40:33.227Z,99497.88
2023-03-29T22:43:59.351Z,99496.43
2023-03-29T22:47:23.339Z,99489.17
2023-03-29T22:50:48.162Z,99489.64
2023-03-29T22:54:12.327Z,99487.95
2023-03-29T22:57:36.430Z,99485.73
2023-03-29T23:01:00.599Z,99485.16
2023-03-29T23:04:24.520Z,99489.27
2023-03-29T23:07:48.481Z,99486.25
2023-03-29T23:11:12.494Z,99478.54
2023-03-29T23:14:36.270Z,99478.44
2023-03-29T23:18:00.467Z,99471.42
2023-03-29T23:21:24.317Z,99468.73
2023-03-29T23:24:48.327Z,99473.52
2023-03-29T23:28:13.361Z,99478.44
2023-03-29T23:31:37.901Z,99469.27
2023-03-29T23:35:02.008Z,99472.65
2023-03-29T23:38:26.294Z,99471.69
2023-03-29T23:41:50.503Z,99473.27
2023-03-29T23:45:18.426Z,99462.71
2023-03-29T23:48:50.282Z,99463.87
2023-03-29T23:52:14.160Z,99461.71
2023-03-29T23:55:38.037Z,99457.13
2023-03-29T23:59:01.915Z,99455.23
